Terminal Aerodrome Forecast
Issued by NWS

Home | Current Version | Previous Version | Text Only | Print | Product List | Glossary On
Versions: 1 2 3 4 5 6 7 8 9 10 11 12 13 14 15 16 17 18 19 20 21 22 23 24 25 26 27 28 29 30 31 32 33 34
702
FTUS45 KBYZ 161120
TAFLVM
TAF
KLVM 161120Z 1612/1712 24019G27KT P6SM FEW180
     FM162200 26025G36KT P6SM FEW090 SCT250
     FM170000 24034G49KT P6SM FEW250
     FM171100 23036G52KT P6SM FEW100=

USA.gov is the U.S. government's official web portal to all federal, state and local government web resources and services.